sensor_id;sensor_type;location;lat;lon;timestamp;pressure;altitude;pressure_sealevel;temperature;humidity
15195;BME280;7698;42.478;23.756;2023-04-25T04:59:38;60057.72;;;-145.67;100.00
15195;BME280;7698;42.478;23.756;2023-04-25T05:02:05;60057.72;;;-145.67;100.00
15195;BME280;7698;42.478;23.756;2023-04-25T05:04:32;60057.72;;;-145.67;100.00
15195;BME280;7698;42.478;23.756;2023-04-25T05:06:59;60057.72;;;-145.67;100.00
15195;BME280;7698;42.478;23.756;2023-04-25T05:09:26;60057.72;;;-145.67;100.00
15195;BME280;7698;42.478;23.756;2023-04-25T05:11:53;60057.72;;;-145.67;100.00
15195;BME280;7698;42.478;23.756;2023-04-25T05:14:20;60057.72;;;-145.67;100.00
15195;BME280;7698;42.478;23.756;2023-04-25T05:16:50;60057.72;;;-145.67;100.00
15195;BME280;7698;42.478;23.756;2023-04-25T05:19:17;60057.72;;;-145.67;100.00
15195;BME280;7698;42.478;23.756;2023-04-25T05:21:43;60057.72;;;-145.67;100.00
15195;BME280;7698;42.478;23.756;2023-04-25T05:24:10;60057.72;;;-145.67;100.00
15195;BME280;7698;42.478;23.756;2023-04-25T05:26:37;60057.72;;;-145.67;100.00
15195;BME280;7698;42.478;23.756;2023-04-25T05:29:04;60057.72;;;-145.67;100.00
15195;BME280;7698;42.478;23.756;2023-04-25T05:31:31;60057.72;;;-145.67;100.00
15195;BME280;7698;42.478;23.756;2023-04-25T05:33:59;60057.72;;;-145.67;100.00
15195;BME280;7698;42.478;23.756;2023-04-25T05:36:26;60057.72;;;-145.67;100.00
15195;BME280;7698;42.478;23.756;2023-04-25T05:38:53;60057.72;;;-145.67;100.00
15195;BME280;7698;42.478;23.756;2023-04-25T05:41:20;60057.72;;;-145.67;100.00
15195;BME280;7698;42.478;23.756;2023-04-25T05:43:47;60057.72;;;-145.67;100.00
15195;BME280;7698;42.478;23.756;2023-04-25T05:46:15;60057.72;;;-145.67;100.00
15195;BME280;7698;42.478;23.756;2023-04-25T05:48:42;60057.72;;;-145.67;100.00
15195;BME280;7698;42.478;23.756;2023-04-25T05:51:11;60057.72;;;-145.67;100.00
15195;BME280;7698;42.478;23.756;2023-04-25T05:53:37;60057.72;;;-145.67;100.00
15195;BME280;7698;42.478;23.756;2023-04-25T05:56:04;60057.72;;;-145.67;100.00
15195;BME280;7698;42.478;23.756;2023-04-25T05:58:31;60057.72;;;-145.67;100.00
15195;BME280;7698;42.478;23.756;2023-04-25T06:00:58;60057.72;;;-145.67;100.00
15195;BME280;7698;42.478;23.756;2023-04-25T06:03:25;60057.72;;;-145.67;100.00
15195;BME280;7698;42.478;23.756;2023-04-25T06:05:52;60057.72;;;-145.67;100.00
15195;BME280;7698;42.478;23.756;2023-04-25T06:08:20;60057.72;;;-145.67;100.00
15195;BME280;7698;42.478;23.756;2023-04-25T06:10:47;60057.72;;;-145.67;100.00
15195;BME280;7698;42.478;23.756;2023-04-25T06:13:14;60057.72;;;-145.67;100.00
15195;BME280;7698;42.478;23.756;2023-04-25T06:15:40;60057.72;;;-145.67;100.00
15195;BME280;7698;42.478;23.756;2023-04-25T06:18:08;60057.72;;;-145.67;100.00
15195;BME280;7698;42.478;23.756;2023-04-25T06:20:35;60057.72;;;-145.67;100.00
15195;BME280;7698;42.478;23.756;2023-04-25T06:23:01;60057.72;;;-145.67;100.00
15195;BME280;7698;42.478;23.756;2023-04-25T06:25:30;60057.72;;;-145.67;100.00
15195;BME280;7698;42.478;23.756;2023-04-25T06:27:56;60057.72;;;-145.67;100.00
15195;BME280;7698;42.478;23.756;2023-04-25T06:30:23;60057.72;;;-145.67;100.00
15195;BME280;7698;42.478;23.756;2023-04-25T06:32:51;60057.72;;;-145.67;100.00
15195;BME280;7698;42.478;23.756;2023-04-25T06:35:18;60057.72;;;-145.67;100.00
15195;BME280;7698;42.478;23.756;2023-04-25T06:37:45;60057.72;;;-145.67;100.00
15195;BME280;7698;42.478;23.756;2023-04-25T06:40:12;60057.72;;;-145.67;100.00
15195;BME280;7698;42.478;23.756;2023-04-25T06:42:40;60057.72;;;-145.67;100.00
15195;BME280;7698;42.478;23.756;2023-04-25T06:45:07;60057.72;;;-145.67;100.00
15195;BME280;7698;42.478;23.756;2023-04-25T06:47:34;60057.72;;;-145.67;100.00
15195;BME280;7698;42.478;23.756;2023-04-25T06:50:01;60057.72;;;-145.67;100.00
15195;BME280;7698;42.478;23.756;2023-04-25T06:52:28;60057.72;;;-145.67;100.00
15195;BME280;7698;42.478;23.756;2023-04-25T06:54:55;60057.72;;;-145.67;100.00
15195;BME280;7698;42.478;23.756;2023-04-25T06:57:21;60057.72;;;-145.67;100.00
15195;BME280;7698;42.478;23.756;2023-04-25T06:59:50;60057.72;;;-145.67;100.00
15195;BME280;7698;42.478;23.756;2023-04-25T07:02:16;60057.72;;;-145.67;100.00
15195;BME280;7698;42.478;23.756;2023-04-25T07:04:43;60057.72;;;-145.67;100.00
15195;BME280;7698;42.478;23.756;2023-04-25T07:07:11;60057.72;;;-145.67;100.00
15195;BME280;7698;42.478;23.756;2023-04-25T07:09:38;60057.72;;;-145.67;100.00
15195;BME280;7698;42.478;23.756;2023-04-25T07:12:05;60057.72;;;-145.67;100.00
15195;BME280;7698;42.478;23.756;2023-04-25T07:14:32;60057.72;;;-145.67;100.00
15195;BME280;7698;42.478;23.756;2023-04-25T07:17:00;60057.72;;;-145.67;100.00
15195;BME280;7698;42.478;23.756;2023-04-25T07:19:27;60057.72;;;-145.67;100.00
15195;BME280;7698;42.478;23.756;2023-04-25T07:21:55;60057.72;;;-145.67;100.00
15195;BME280;7698;42.478;23.756;2023-04-25T07:24:21;60057.72;;;-145.67;100.00
15195;BME280;7698;42.478;23.756;2023-04-25T07:26:48;60057.72;;;-145.67;100.00
15195;BME280;7698;42.478;23.756;2023-04-25T07:29:16;60057.72;;;-145.67;100.00
15195;BME280;7698;42.478;23.756;2023-04-25T07:31:43;60057.72;;;-145.67;100.00
15195;BME280;7698;42.478;23.756;2023-04-25T07:34:11;60057.72;;;-145.67;100.00
15195;BME280;7698;42.478;23.756;2023-04-25T07:36:38;60057.72;;;-145.67;100.00
15195;BME280;7698;42.478;23.756;2023-04-25T07:39:05;60057.72;;;-145.67;100.00
15195;BME280;7698;42.478;23.756;2023-04-25T07:41:34;60057.72;;;-145.67;100.00
15195;BME280;7698;42.478;23.756;2023-04-25T07:44:01;60057.72;;;-145.67;100.00
15195;BME280;7698;42.478;23.756;2023-04-25T07:46:28;60057.72;;;-145.67;100.00
15195;BME280;7698;42.478;23.756;2023-04-25T07:48:54;60057.72;;;-145.67;100.00
15195;BME280;7698;42.478;23.756;2023-04-25T07:51:23;60057.72;;;-145.67;100.00
15195;BME280;7698;42.478;23.756;2023-04-25T07:53:49;60057.72;;;-145.67;100.00
15195;BME280;7698;42.478;23.756;2023-04-25T07:56:16;60057.72;;;-145.67;100.00
15195;BME280;7698;42.478;23.756;2023-04-25T07:58:44;60057.72;;;-145.67;100.00
15195;BME280;7698;42.478;23.756;2023-04-25T08:01:11;60057.72;;;-145.67;100.00
15195;BME280;7698;42.478;23.756;2023-04-25T08:03:37;60057.72;;;-145.67;100.00
15195;BME280;7698;42.478;23.756;2023-04-25T08:06:04;60057.72;;;-145.67;100.00
15195;BME280;7698;42.478;23.756;2023-04-25T08:08:33;60057.72;;;-145.67;100.00
15195;BME280;7698;42.478;23.756;2023-04-25T08:10:59;60057.72;;;-145.67;100.00
15195;BME280;7698;42.478;23.756;2023-04-25T08:13:26;60057.72;;;-145.67;100.00
15195;BME280;7698;42.478;23.756;2023-04-25T08:15:53;60057.72;;;-145.67;100.00
15195;BME280;7698;42.478;23.756;2023-04-25T08:18:20;60057.72;;;-145.67;100.00
15195;BME280;7698;42.478;23.756;2023-04-25T08:20:47;60057.72;;;-145.67;100.00
15195;BME280;7698;42.478;23.756;2023-04-25T08:23:14;60057.72;;;-145.67;100.00
15195;BME280;7698;42.478;23.756;2023-04-25T08:25:42;60057.72;;;-145.67;100.00
15195;BME280;7698;42.478;23.756;2023-04-25T08:28:09;60057.72;;;-145.67;100.00
15195;BME280;7698;42.478;23.756;2023-04-25T08:30:36;60057.72;;;-145.67;100.00
15195;BME280;7698;42.478;23.756;2023-04-25T08:33:03;60057.72;;;-145.67;100.00
15195;BME280;7698;42.478;23.756;2023-04-25T08:35:30;60057.72;;;-145.67;100.00
15195;BME280;7698;42.478;23.756;2023-04-25T08:37:58;60057.72;;;-145.67;100.00
15195;BME280;7698;42.478;23.756;2023-04-25T08:40:27;60057.72;;;-145.67;100.00
15195;BME280;7698;42.478;23.756;2023-04-25T08:42:57;60057.72;;;-145.67;100.00
15195;BME280;7698;42.478;23.756;2023-04-25T08:45:26;60057.72;;;-145.67;100.00
15195;BME280;7698;42.478;23.756;2023-04-25T08:47:54;60057.72;;;-145.67;100.00
15195;BME280;7698;42.478;23.756;2023-04-25T08:50:23;60057.72;;;-145.67;100.00
15195;BME280;7698;42.478;23.756;2023-04-25T08:52:53;60057.72;;;-145.67;100.00
15195;BME280;7698;42.478;23.756;2023-04-25T08:55:21;60057.72;;;-145.67;100.00
15195;BME280;7698;42.478;23.756;2023-04-25T08:57:49;60057.72;;;-145.67;100.00
15195;BME280;7698;42.478;23.756;2023-04-25T09:00:18;60057.72;;;-145.67;100.00
15195;BME280;7698;42.478;23.756;2023-04-25T09:02:46;60057.72;;;-145.67;100.00
15195;BME280;7698;42.478;23.756;2023-04-25T09:05:14;60057.72;;;-145.67;100.00
15195;BME280;7698;42.478;23.756;2023-04-25T09:07:40;60057.72;;;-145.67;100.00
15195;BME280;7698;42.478;23.756;2023-04-25T09:10:08;60057.72;;;-145.67;100.00
15195;BME280;7698;42.478;23.756;2023-04-25T09:12:35;60057.72;;;-145.67;100.00
15195;BME280;7698;42.478;23.756;2023-04-25T09:15:04;60057.72;;;-145.67;100.00
15195;BME280;7698;42.478;23.756;2023-04-25T09:17:33;60057.72;;;-145.67;100.00
15195;BME280;7698;42.478;23.756;2023-04-25T09:20:08;60057.72;;;-145.67;100.00
15195;BME280;7698;42.478;23.756;2023-04-25T09:22:35;60057.72;;;-145.67;100.00
15195;BME280;7698;42.478;23.756;2023-04-25T09:25:04;60057.72;;;-145.67;100.00
15195;BME280;7698;42.478;23.756;2023-04-25T09:27:34;60057.72;;;-145.67;100.00
15195;BME280;7698;42.478;23.756;2023-04-25T09:30:02;60057.72;;;-145.67;100.00
15195;BME280;7698;42.478;23.756;2023-04-25T09:32:29;60057.72;;;-145.67;100.00
15195;BME280;7698;42.478;23.756;2023-04-25T09:34:57;60057.72;;;-145.67;100.00
15195;BME280;7698;42.478;23.756;2023-04-25T09:37:26;60057.72;;;-145.67;100.00
15195;BME280;7698;42.478;23.756;2023-04-25T09:39:54;60057.72;;;-145.67;100.00
15195;BME280;7698;42.478;23.756;2023-04-25T09:42:22;60057.72;;;-145.67;100.00
15195;BME280;7698;42.478;23.756;2023-04-25T09:44:52;60057.72;;;-145.67;100.00
15195;BME280;7698;42.478;23.756;2023-04-25T09:47:20;60057.72;;;-145.67;100.00
15195;BME280;7698;42.478;23.756;2023-04-25T09:49:49;60057.72;;;-145.67;100.00
15195;BME280;7698;42.478;23.756;2023-04-25T09:52:18;60057.72;;;-145.67;100.00
15195;BME280;7698;42.478;23.756;2023-04-25T09:54:47;60057.72;;;-145.67;100.00
15195;BME280;7698;42.478;23.756;2023-04-25T09:57:16;60057.72;;;-145.67;100.00
15195;BME280;7698;42.478;23.756;2023-04-25T09:59:44;60057.72;;;-145.67;100.00
15195;BME280;7698;42.478;23.756;2023-04-25T10:02:12;60057.72;;;-145.67;100.00
15195;BME280;7698;42.478;23.756;2023-04-25T10:04:40;60057.72;;;-145.67;100.00
15195;BME280;7698;42.478;23.756;2023-04-25T10:07:08;60057.72;;;-145.67;100.00
15195;BME280;7698;42.478;23.756;2023-04-25T10:09:38;60057.72;;;-145.67;100.00
15195;BME280;7698;42.478;23.756;2023-04-25T10:12:07;60057.72;;;-145.67;100.00
15195;BME280;7698;42.478;23.756;2023-04-25T10:14:34;60057.72;;;-145.67;100.00
15195;BME280;7698;42.478;23.756;2023-04-25T11:00:42;92470.00;;;19.14;72.91
15195;BME280;7698;42.478;23.756;2023-04-25T11:03:09;92477.88;;;20.07;69.15
15195;BME280;7698;42.478;23.756;2023-04-25T11:05:36;92486.00;;;20.33;64.45
15195;BME280;7698;42.478;23.756;2023-04-25T11:08:11;92478.38;;;20.35;62.62
15195;BME280;7698;42.478;23.756;2023-04-25T11:10:39;92481.25;;;20.21;60.71
15195;BME280;7698;42.478;23.756;2023-04-25T11:13:06;92481.22;;;19.96;59.31
15195;BME280;7698;42.478;23.756;2023-04-25T11:15:33;92466.97;;;19.16;56.11
15195;BME280;7698;42.478;23.756;2023-04-25T11:18:02;92458.28;;;18.43;58.26
15195;BME280;7698;42.478;23.756;2023-04-25T11:20:29;92452.44;;;17.83;59.63
15195;BME280;7698;42.478;23.756;2023-04-25T11:22:57;92446.81;;;17.30;61.32
15195;BME280;7698;42.478;23.756;2023-04-25T11:25:25;92444.03;;;16.94;63.85
15195;BME280;7698;42.478;23.756;2023-04-25T11:27:53;92447.34;;;16.58;64.33
15195;BME280;7698;42.478;23.756;2023-04-25T11:30:23;92485.03;;;16.44;67.62
15195;BME280;7698;42.478;23.756;2023-04-25T11:32:50;92489.97;;;16.23;69.11
15195;BME280;7698;42.478;23.756;2023-04-25T11:35:19;92498.59;;;15.88;73.21
15195;BME280;7698;42.478;23.756;2023-04-25T11:37:48;92496.94;;;15.49;79.05
15195;BME280;7698;42.478;23.756;2023-04-25T11:40:15;92482.84;;;15.15;84.21
15195;BME280;7698;42.478;23.756;2023-04-25T11:42:44;92490.41;;;14.89;88.69
15195;BME280;7698;42.478;23.756;2023-04-25T11:45:12;92491.38;;;14.74;90.94
15195;BME280;7698;42.478;23.756;2023-04-25T11:47:40;92483.09;;;14.71;94.88
15195;BME280;7698;42.478;23.756;2023-04-25T11:50:08;92470.56;;;14.61;95.98
15195;BME280;7698;42.478;23.756;2023-04-25T11:52:37;92462.50;;;14.61;98.20
15195;BME280;7698;42.478;23.756;2023-04-25T11:55:06;92467.50;;;14.73;99.73
15195;BME280;7698;42.478;23.756;2023-04-25T11:57:34;92473.31;;;15.04;100.00
15195;BME280;7698;42.478;23.756;2023-04-25T12:00:11;92480.88;;;15.44;100.00
15195;BME280;7698;42.478;23.756;2023-04-25T12:02:42;92474.06;;;15.89;100.00
15195;BME280;7698;42.478;23.756;2023-04-25T12:05:09;92471.09;;;16.56;100.00
15195;BME280;7698;42.478;23.756;2023-04-25T12:07:38;92482.72;;;17.80;100.00
15195;BME280;7698;42.478;23.756;2023-04-25T12:10:07;92458.88;;;18.85;100.00
15195;BME280;7698;42.478;23.756;2023-04-25T12:12:36;92458.66;;;19.52;98.17
15195;BME280;7698;42.478;23.756;2023-04-25T12:15:10;92454.44;;;20.03;89.62
15195;BME280;7698;42.478;23.756;2023-04-25T12:17:38;92451.72;;;20.28;85.83
15195;BME280;7698;42.478;23.756;2023-04-25T12:20:07;92456.34;;;20.37;78.70
15195;BME280;7698;42.478;23.756;2023-04-25T12:22:34;92457.66;;;20.22;74.35
15195;BME280;7698;42.478;23.756;2023-04-25T12:25:03;92464.47;;;19.76;72.15
15195;BME280;7698;42.478;23.756;2023-04-25T12:27:31;92456.56;;;19.01;67.21
15195;BME280;7698;42.478;23.756;2023-04-25T12:29:59;92448.84;;;18.32;69.84
15195;BME280;7698;42.478;23.756;2023-04-25T12:32:25;92446.47;;;17.72;71.04
15195;BME280;7698;42.478;23.756;2023-04-25T12:34:52;92442.81;;;17.41;75.00
15195;BME280;7698;42.478;23.756;2023-04-25T12:37:19;92451.19;;;17.25;78.86
15195;BME280;7698;42.478;23.756;2023-04-25T12:39:46;92442.13;;;17.08;78.99
15195;BME280;7698;42.478;23.756;2023-04-25T12:42:15;92441.63;;;16.78;79.63
15195;BME280;7698;42.478;23.756;2023-04-25T12:44:42;92442.47;;;16.60;82.31
15195;BME280;7698;42.478;23.756;2023-04-25T12:47:09;92444.13;;;16.42;83.15
15195;BME280;7698;42.478;23.756;2023-04-25T12:49:36;92448.59;;;16.33;85.19
15195;BME280;7698;42.478;23.756;2023-04-25T12:52:03;92448.69;;;16.28;86.54
15195;BME280;7698;42.478;23.756;2023-04-25T12:54:30;92459.84;;;16.21;89.05
15195;BME280;7698;42.478;23.756;2023-04-25T12:56:57;92459.81;;;16.08;89.96
15195;BME280;7698;42.478;23.756;2023-04-25T12:59:25;92455.81;;;15.86;91.72
15195;BME280;7698;42.478;23.756;2023-04-25T13:01:52;92465.03;;;15.62;95.92
15195;BME280;7698;42.478;23.756;2023-04-25T13:04:19;92467.47;;;15.20;96.54
15195;BME280;7698;42.478;23.756;2023-04-25T13:06:46;92473.94;;;14.72;96.48
15195;BME280;7698;42.478;23.756;2023-04-25T13:09:13;92474.41;;;14.21;99.63
15195;BME280;7698;42.478;23.756;2023-04-25T13:11:40;92469.31;;;13.85;100.00
15195;BME280;7698;42.478;23.756;2023-04-25T13:14:07;92475.97;;;13.54;100.00
15195;BME280;7698;42.478;23.756;2023-04-25T13:16:35;92458.41;;;13.28;100.00
15195;BME280;7698;42.478;23.756;2023-04-25T13:19:02;92461.41;;;13.16;100.00
15195;BME280;7698;42.478;23.756;2023-04-25T13:21:30;92448.25;;;13.25;100.00
15195;BME280;7698;42.478;23.756;2023-04-25T13:23:57;92443.84;;;13.44;100.00
15195;BME280;7698;42.478;23.756;2023-04-25T13:26:25;92435.88;;;13.68;100.00
15195;BME280;7698;42.478;23.756;2023-04-25T13:28:52;92436.69;;;14.31;100.00
15195;BME280;7698;42.478;23.756;2023-04-25T13:31:19;92456.59;;;15.31;100.00
15195;BME280;7698;42.478;23.756;2023-04-25T13:33:47;92453.06;;;16.24;100.00
15195;BME280;7698;42.478;23.756;2023-04-25T13:36:14;92451.72;;;16.86;100.00
15195;BME280;7698;42.478;23.756;2023-04-25T13:38:41;92452.94;;;17.21;100.00
15195;BME280;7698;42.478;23.756;2023-04-25T13:41:09;92451.97;;;17.67;100.00
15195;BME280;7698;42.478;23.756;2023-04-25T13:43:36;92451.56;;;17.74;96.12
15195;BME280;7698;42.478;23.756;2023-04-25T13:46:03;92444.91;;;17.93;93.08
15195;BME280;7698;42.478;23.756;2023-04-25T13:48:30;92443.75;;;18.31;90.94
15195;BME280;7698;42.478;23.756;2023-04-25T13:50:58;92446.75;;;18.51;88.92
15195;BME280;7698;42.478;23.756;2023-04-25T13:53:25;92447.00;;;18.19;80.85
15195;BME280;7698;42.478;23.756;2023-04-25T13:55:52;92448.69;;;17.92;80.39
15195;BME280;7698;42.478;23.756;2023-04-25T13:58:19;92448.50;;;17.89;83.01
15195;BME280;7698;42.478;23.756;2023-04-25T14:00:46;92449.47;;;17.71;82.61
15195;BME280;7698;42.478;23.756;2023-04-25T14:03:13;92448.69;;;17.43;83.20
15195;BME280;7698;42.478;23.756;2023-04-25T14:05:40;92446.81;;;17.16;85.03
15195;BME280;7698;42.478;23.756;2023-04-25T14:08:09;92448.81;;;16.83;83.65
15195;BME280;7698;42.478;23.756;2023-04-25T14:10:36;92448.97;;;16.59;85.40
15195;BME280;7698;42.478;23.756;2023-04-25T14:13:04;92442.44;;;16.46;86.53
15195;BME280;7698;42.478;23.756;2023-04-25T14:15:31;92446.22;;;16.64;88.96
15195;BME280;7698;42.478;23.756;2023-04-25T14:17:59;92446.41;;;17.09;90.57
15195;BME280;7698;42.478;23.756;2023-04-25T14:20:26;92445.31;;;17.10;82.66
15195;BME280;7698;42.478;23.756;2023-04-25T14:22:53;92444.53;;;17.09;81.94
15195;BME280;7698;42.478;23.756;2023-04-25T14:25:23;92443.81;;;17.04;80.81
15195;BME280;7698;42.478;23.756;2023-04-25T14:27:50;92444.84;;;16.94;80.21
15195;BME280;7698;42.478;23.756;2023-04-25T14:30:17;92447.31;;;17.04;82.29
15195;BME280;7698;42.478;23.756;2023-04-25T14:32:44;92445.00;;;16.98;80.12
15195;BME280;7698;42.478;23.756;2023-04-25T14:35:12;92454.13;;;17.15;80.17
15195;BME280;7698;42.478;23.756;2023-04-25T14:37:38;92446.69;;;17.35;80.21
15195;BME280;7698;42.478;23.756;2023-04-25T14:40:07;92448.59;;;17.48;77.91
15195;BME280;7698;42.478;23.756;2023-04-25T14:42:37;92445.91;;;17.48;77.20
15195;BME280;7698;42.478;23.756;2023-04-25T14:45:04;92438.28;;;17.50;78.67
15195;BME280;7698;42.478;23.756;2023-04-25T14:47:32;92439.81;;;17.29;77.82
15195;BME280;7698;42.478;23.756;2023-04-25T14:49:59;92436.22;;;17.06;79.55
15195;BME280;7698;42.478;23.756;2023-04-25T14:52:27;92431.84;;;16.82;79.78
15195;BME280;7698;42.478;23.756;2023-04-25T14:54:54;92419.25;;;16.78;79.63
15195;BME280;7698;42.478;23.756;2023-04-25T14:57:20;92420.91;;;16.60;78.66
15195;BME280;7698;42.478;23.756;2023-04-25T14:59:49;92412.78;;;16.33;78.35
15195;BME280;7698;42.478;23.756;2023-04-25T15:02:16;92405.09;;;15.94;78.82
15195;BME280;7698;42.478;23.756;2023-04-25T15:04:42;92403.22;;;15.75;80.12
15195;BME280;7698;42.478;23.756;2023-04-25T15:07:09;92411.66;;;15.50;82.23
15195;BME280;7698;42.478;23.756;2023-04-25T15:09:36;92399.88;;;15.46;84.16
15195;BME280;7698;42.478;23.756;2023-04-25T15:12:04;92400.44;;;15.43;84.85
15195;BME280;7698;42.478;23.756;2023-04-25T15:14:30;92399.94;;;15.41;86.74
15195;BME280;7698;42.478;23.756;2023-04-25T15:17:00;92395.22;;;15.33;86.45
15195;BME280;7698;42.478;23.756;2023-04-25T15:19:27;92388.09;;;15.23;86.19
15195;BME280;7698;42.478;23.756;2023-04-25T15:21:54;92385.97;;;15.01;87.48
15195;BME280;7698;42.478;23.756;2023-04-25T15:24:21;92383.47;;;14.86;87.36
15195;BME280;7698;42.478;23.756;2023-04-25T15:26:48;92372.56;;;14.77;89.61
15195;BME280;7698;42.478;23.756;2023-04-25T15:29:15;92360.00;;;14.73;89.92
15195;BME280;7698;42.478;23.756;2023-04-25T15:31:42;92358.25;;;14.82;91.45
15195;BME280;7698;42.478;23.756;2023-04-25T15:34:10;92369.13;;;14.96;90.58
15195;BME280;7698;42.478;23.756;2023-04-25T15:36:37;92368.97;;;15.06;90.12
15195;BME280;7698;42.478;23.756;2023-04-25T15:39:04;92364.38;;;15.06;89.04
15195;BME280;7698;42.478;23.756;2023-04-25T15:41:31;92374.19;;;14.97;88.51
15195;BME280;7698;42.478;23.756;2023-04-25T15:43:59;92369.53;;;14.84;87.76
15195;BME280;7698;42.478;23.756;2023-04-25T15:46:26;92367.09;;;14.64;86.89
15195;BME280;7698;42.478;23.756;2023-04-25T15:48:52;92364.38;;;14.45;86.36
15195;BME280;7698;42.478;23.756;2023-04-25T15:51:21;92360.47;;;14.27;85.80
15195;BME280;7698;42.478;23.756;2023-04-25T15:53:48;92368.94;;;14.15;87.48
15195;BME280;7698;42.478;23.756;2023-04-25T15:56:15;92362.81;;;14.10;88.41
15195;BME280;7698;42.478;23.756;2023-04-25T15:58:42;92366.13;;;14.02;89.61
15195;BME280;7698;42.478;23.756;2023-04-25T16:01:09;92353.88;;;13.91;91.96
15195;BME280;7698;42.478;23.756;2023-04-25T16:03:36;92351.59;;;13.74;91.93
15195;BME280;7698;42.478;23.756;2023-04-25T16:06:03;92348.00;;;13.60;94.46
15195;BME280;7698;42.478;23.756;2023-04-25T16:08:31;92356.63;;;13.51;97.62
15195;BME280;7698;42.478;23.756;2023-04-25T16:11:00;92349.69;;;13.45;100.00
15195;BME280;7698;42.478;23.756;2023-04-25T16:13:27;92352.63;;;13.49;100.00
15195;BME280;7698;42.478;23.756;2023-04-25T16:15:54;92357.44;;;13.52;100.00
15195;BME280;7698;42.478;23.756;2023-04-25T16:18:21;92357.44;;;13.52;100.00
15195;BME280;7698;42.478;23.756;2023-04-25T16:20:48;92356.38;;;13.48;100.00
15195;BME280;7698;42.478;23.756;2023-04-25T16:23:15;92349.53;;;13.37;100.00
15195;BME280;7698;42.478;23.756;2023-04-25T16:25:44;92349.84;;;13.30;100.00
15195;BME280;7698;42.478;23.756;2023-04-25T16:28:11;92347.22;;;13.20;100.00
15195;BME280;7698;42.478;23.756;2023-04-25T16:30:37;92348.06;;;13.10;100.00
15195;BME280;7698;42.478;23.756;2023-04-25T16:33:05;92350.56;;;12.97;100.00
15195;BME280;7698;42.478;23.756;2023-04-25T16:35:32;92353.00;;;12.88;100.00
15195;BME280;7698;42.478;23.756;2023-04-25T16:37:59;92347.44;;;12.84;100.00
15195;BME280;7698;42.478;23.756;2023-04-25T16:40:26;92352.53;;;12.76;100.00
15195;BME280;7698;42.478;23.756;2023-04-25T16:42:54;92355.78;;;12.68;100.00
15195;BME280;7698;42.478;23.756;2023-04-25T16:45:21;92357.75;;;12.57;100.00
15195;BME280;7698;42.478;23.756;2023-04-25T16:47:48;92361.78;;;12.49;100.00
15195;BME280;7698;42.478;23.756;2023-04-25T16:50:18;92356.97;;;12.41;100.00
15195;BME280;7698;42.478;23.756;2023-04-25T16:52:45;92363.16;;;12.32;100.00
15195;BME280;7698;42.478;23.756;2023-04-25T16:55:12;92367.75;;;12.26;100.00
15195;BME280;7698;42.478;23.756;2023-04-25T16:57:39;92367.22;;;12.19;100.00
15195;BME280;7698;42.478;23.756;2023-04-25T17:00:08;92371.53;;;12.10;100.00
15195;BME280;7698;42.478;23.756;2023-04-25T17:02:37;92384.41;;;12.03;100.00
15195;BME280;7698;42.478;23.756;2023-04-25T17:05:04;92378.53;;;11.96;100.00
15195;BME280;7698;42.478;23.756;2023-04-25T17:07:31;92382.81;;;11.92;100.00
15195;BME280;7698;42.478;23.756;2023-04-25T17:09:58;92385.50;;;11.86;100.00
15195;BME280;7698;42.478;23.756;2023-04-25T17:12:25;92387.91;;;11.83;100.00
15195;BME280;7698;42.478;23.756;2023-04-25T17:14:52;92391.63;;;11.82;100.00
15195;BME280;7698;42.478;23.756;2023-04-25T17:17:21;92395.38;;;11.81;100.00
15195;BME280;7698;42.478;23.756;2023-04-25T17:19:47;92394.03;;;11.78;100.00
15195;BME280;7698;42.478;23.756;2023-04-25T17:22:14;92401.53;;;11.76;100.00
15195;BME280;7698;42.478;23.756;2023-04-25T17:24:41;92404.75;;;11.78;100.00
15195;BME280;7698;42.478;23.756;2023-04-25T17:27:08;92416.50;;;11.77;100.00
15195;BME280;7698;42.478;23.756;2023-04-25T17:29:35;92424.81;;;11.76;100.00
15195;BME280;7698;42.478;23.756;2023-04-25T17:32:01;92429.88;;;11.72;100.00
15195;BME280;7698;42.478;23.756;2023-04-25T17:34:30;92436.28;;;11.71;100.00
15195;BME280;7698;42.478;23.756;2023-04-25T17:36:56;92439.22;;;11.70;100.00
15195;BME280;7698;42.478;23.756;2023-04-25T17:39:23;92453.41;;;11.70;100.00
15195;BME280;7698;42.478;23.756;2023-04-25T17:41:50;92450.47;;;11.67;100.00
15195;BME280;7698;42.478;23.756;2023-04-25T17:44:17;92467.03;;;11.64;100.00
15195;BME280;7698;42.478;23.756;2023-04-25T17:46:44;92466.75;;;11.60;100.00
15195;BME280;7698;42.478;23.756;2023-04-25T17:49:11;92469.97;;;11.57;100.00
15195;BME280;7698;42.478;23.756;2023-04-25T17:51:39;92472.63;;;11.52;100.00
15195;BME280;7698;42.478;23.756;2023-04-25T17:54:06;92476.13;;;11.47;100.00
15195;BME280;7698;42.478;23.756;2023-04-25T17:56:35;92470.75;;;11.42;100.00
15195;BME280;7698;42.478;23.756;2023-04-25T17:59:03;92480.63;;;11.32;100.00
15195;BME280;7698;42.478;23.756;2023-04-25T18:01:30;92483.00;;;11.23;100.00
15195;BME280;7698;42.478;23.756;2023-04-25T18:03:57;92479.75;;;11.11;100.00
15195;BME280;7698;42.478;23.756;2023-04-25T18:06:24;92494.97;;;11.05;100.00
15195;BME280;7698;42.478;23.756;2023-04-25T18:08:54;92493.63;;;11.03;100.00
15195;BME280;7698;42.478;23.756;2023-04-25T18:11:21;92493.59;;;10.98;100.00
15195;BME280;7698;42.478;23.756;2023-04-25T18:13:48;92504.03;;;10.99;100.00
15195;BME280;7698;42.478;23.756;2023-04-25T18:16:15;92509.38;;;10.99;100.00
15195;BME280;7698;42.478;23.756;2023-04-25T18:18:42;92517.38;;;10.99;100.00
15195;BME280;7698;42.478;23.756;2023-04-25T18:21:11;92510.44;;;10.93;100.00
15195;BME280;7698;42.478;23.756;2023-04-25T18:23:38;92514.69;;;10.89;100.00
15195;BME280;7698;42.478;23.756;2023-04-25T18:26:06;92522.19;;;10.92;100.00
15195;BME280;7698;42.478;23.756;2023-04-25T18:28:33;92521.63;;;10.90;100.00